createdAt,value
2019-04-19T00:02:32.325Z,42.40
2019-04-19T00:04:57.478Z,42.20
2019-04-19T00:07:27.099Z,42.60
2019-04-19T00:10:00.593Z,42.50
2019-04-19T00:12:32.509Z,42.00
2019-04-19T00:14:48.577Z,42.60
2019-04-19T00:17:20.437Z,42.60
2019-04-19T00:20:09.930Z,42.70
2019-04-19T00:22:28.822Z,42.60
2019-04-19T00:24:39.585Z,42.60
2019-04-19T00:27:05.943Z,43.00
2019-04-19T00:29:42.454Z,42.50
2019-04-19T00:32:16.918Z,42.90
2019-04-19T00:34:29.396Z,43.10
2019-04-19T00:36:55.604Z,43.00
2019-04-19T00:39:47.966Z,43.10
2019-04-19T00:42:25.988Z,43.30
2019-04-19T00:44:57.620Z,42.90
2019-04-19T00:47:27.087Z,42.80
2019-04-19T00:49:52.680Z,42.90
2019-04-19T00:52:31.006Z,43.00
2019-04-19T00:54:48.091Z,43.50
2019-04-19T00:57:15.579Z,43.80
2019-04-19T00:59:38.628Z,43.70
2019-04-19T01:02:08.324Z,44.20
2019-04-19T01:04:31.882Z,44.30
2019-04-19T01:07:00.518Z,44.40
2019-04-19T01:09:38.900Z,44.40
2019-04-19T01:12:07.033Z,44.20
2019-04-19T01:14:33.551Z,44.30
2019-04-19T01:17:05.180Z,44.80
2019-04-19T01:19:19.447Z,44.40
2019-04-19T01:21:45.096Z,45.00
2019-04-19T01:24:11.336Z,45.20
2019-04-19T01:26:45.578Z,44.90
2019-04-19T01:29:09.426Z,45.00
2019-04-19T01:31:34.003Z,44.80
2019-04-19T01:34:02.984Z,45.00
2019-04-19T01:36:35.765Z,45.10
2019-04-19T01:39:14.149Z,44.80
2019-04-19T01:41:39.687Z,45.20
2019-04-19T01:44:18.943Z,45.90
2019-04-19T01:46:44.884Z,45.30
2019-04-19T01:49:17.982Z,45.40
2019-04-19T01:52:04.498Z,45.30
2019-04-19T01:54:33.006Z,45.20
2019-04-19T01:56:51.995Z,45.60
2019-04-19T01:59:13.673Z,45.40
2019-04-19T02:01:39.832Z,45.40
2019-04-19T02:04:12.260Z,45.20
2019-04-19T02:06:39.543Z,45.40
2019-04-19T02:09:07.525Z,45.60
2019-04-19T02:11:51.357Z,45.30
2019-04-19T02:14:18.408Z,45.50
2019-04-19T02:16:40.819Z,45.60
2019-04-19T02:19:12.341Z,45.10
2019-04-19T02:21:38.189Z,45.60
2019-04-19T02:24:05.801Z,45.80
2019-04-19T02:26:32.221Z,45.30
2019-04-19T02:29:07.564Z,45.80
2019-04-19T02:31:43.603Z,45.40
2019-04-19T02:34:29.076Z,45.40
2019-04-19T02:39:25.711Z,45.40
2019-04-19T02:41:53.386Z,45.50
2019-04-19T02:44:13.522Z,45.60
2019-04-19T02:51:36.302Z,46.00
2019-04-19T02:54:09.637Z,45.70
2019-04-19T02:56:53.993Z,45.90
2019-04-19T02:59:24.235Z,45.50
2019-04-19T03:02:11.840Z,45.90
2019-04-19T03:04:45.380Z,45.80
2019-04-19T03:06:39.919Z,45.80
2019-04-19T03:09:00.893Z,45.90
2019-04-19T03:11:43.933Z,45.80
2019-04-19T03:14:07.919Z,46.10
2019-04-19T03:16:46.331Z,46.20
2019-04-19T03:19:05.817Z,46.40
2019-04-19T03:21:40.647Z,46.50
2019-04-19T03:23:59.981Z,46.30
2019-04-19T03:26:32.636Z,46.30
2019-04-19T03:28:51.413Z,46.50
2019-04-19T03:34:05.062Z,46.60
2019-04-19T03:36:34.850Z,46.80
2019-04-19T03:38:48.486Z,46.70
2019-04-19T03:41:44.814Z,46.80
2019-04-19T03:44:04.802Z,46.80
2019-04-19T03:46:28.464Z,47.00
2019-04-19T03:48:53.667Z,47.00
2019-04-19T03:51:25.389Z,47.30
2019-04-19T03:53:56.848Z,47.90
2019-04-19T03:56:39.674Z,48.50
2019-04-19T03:58:33.872Z,48.70
2019-04-19T04:01:00.244Z,49.00
2019-04-19T04:03:34.031Z,48.70
2019-04-19T04:05:55.487Z,48.20
2019-04-19T04:08:28.036Z,48.40
2019-04-19T04:11:06.994Z,47.60
2019-04-19T04:13:46.485Z,49.10
2019-04-19T04:16:20.625Z,49.10
2019-04-19T04:18:40.532Z,48.80
2019-04-19T04:21:07.522Z,49.10
2019-04-19T04:23:39.227Z,48.90
2019-04-19T04:26:08.254Z,47.90
2019-04-19T04:28:43.522Z,47.80
2019-04-19T04:31:11.153Z,47.90
2019-04-19T04:33:36.069Z,47.70
2019-04-19T04:36:20.116Z,47.80
2019-04-19T04:38:29.135Z,48.70
2019-04-19T04:40:50.703Z,48.90
2019-04-19T04:43:31.394Z,48.80
2019-04-19T04:46:22.024Z,48.90
2019-04-19T04:48:43.702Z,49.20
2019-04-19T04:51:15.621Z,49.20
2019-04-19T04:53:32.095Z,49.30
2019-04-19T04:56:02.817Z,49.30
2019-04-19T04:58:32.669Z,49.50
2019-04-19T05:01:03.463Z,49.60
2019-04-19T05:03:46.631Z,49.70
2019-04-19T05:06:12.440Z,49.70
2019-04-19T05:08:43.070Z,49.90
2019-04-19T05:11:06.542Z,50.00
2019-04-19T05:13:33.422Z,50.10
2019-04-19T05:16:14.773Z,50.40
2019-04-19T05:18:32.108Z,50.70
2019-04-19T05:20:58.201Z,50.60
2019-04-19T05:23:27.209Z,50.10
2019-04-19T05:26:01.113Z,50.40
2019-04-19T05:28:22.259Z,50.40
2019-04-19T05:30:43.077Z,50.60
2019-04-19T05:33:39.982Z,50.90
2019-04-19T05:36:13.774Z,50.80
2019-04-19T05:38:56.050Z,51.00
2019-04-19T05:41:23.878Z,51.20
2019-04-19T05:44:15.346Z,50.70
2019-04-19T05:46:37.526Z,50.80
2019-04-19T05:48:51.006Z,51.40
2019-04-19T05:51:34.202Z,51.40
2019-04-19T05:53:46.669Z,51.40
2019-04-19T05:56:07.438Z,51.10
2019-04-19T05:58:48.146Z,51.20
2019-04-19T06:01:22.433Z,51.10
2019-04-19T06:03:48.948Z,51.00
2019-04-19T06:06:19.954Z,51.00
2019-04-19T06:08:30.866Z,51.20
2019-04-19T06:10:59.295Z,51.10
2019-04-19T06:13:21.943Z,51.40
2019-04-19T06:16:12.029Z,51.30
2019-04-19T06:18:40.178Z,51.00
2019-04-19T06:21:19.839Z,51.00
2019-04-19T06:23:50.783Z,50.70
2019-04-19T06:26:39.862Z,50.50
2019-04-19T06:28:44.092Z,50.90
2019-04-19T06:31:05.371Z,51.00
2019-04-19T06:33:32.122Z,51.00
2019-04-19T06:35:51.507Z,51.00
2019-04-19T06:38:11.703Z,50.70
2019-04-19T06:40:42.912Z,50.40
2019-04-19T06:43:12.566Z,50.30
2019-04-19T06:45:49.173Z,49.80
2019-04-19T06:48:09.237Z,49.70
2019-04-19T06:50:35.360Z,49.30
2019-04-19T06:52:57.890Z,49.50
2019-04-19T06:55:30.138Z,49.10
2019-04-19T06:58:01.565Z,49.30
2019-04-19T07:00:36.316Z,49.30
2019-04-19T07:02:49.749Z,48.80
2019-04-19T07:05:31.191Z,48.80
2019-04-19T07:08:08.892Z,49.00
2019-04-19T07:10:45.634Z,48.80
2019-04-19T07:13:02.926Z,48.70
2019-04-19T07:15:44.210Z,48.30
2019-04-19T07:17:53.397Z,48.10
2019-04-19T07:20:19.933Z,47.50
2019-04-19T07:22:54.469Z,47.30
2019-04-19T07:25:30.529Z,47.80
2019-04-19T07:27:45.273Z,48.00
2019-04-19T07:30:03.419Z,46.90
2019-04-19T07:32:37.407Z,46.40
2019-04-19T07:35:10.465Z,46.60
2019-04-19T07:37:41.967Z,45.40
2019-04-19T07:40:11.249Z,45.20
2019-04-19T07:42:40.687Z,44.60
2019-04-19T07:45:05.320Z,44.80
2019-04-19T07:47:42.902Z,44.60
2019-04-19T07:50:08.466Z,44.00
2019-04-19T07:52:39.888Z,44.40
2019-04-19T07:55:00.536Z,43.70
2019-04-19T08:00:19.074Z,43.10
2019-04-19T08:07:49.466Z,42.00
2019-04-19T08:15:06.489Z,41.10
2019-04-19T08:29:38.522Z,39.90
2019-04-19T08:31:55.203Z,39.90
2019-04-19T08:34:24.712Z,39.10
2019-04-19T08:36:54.994Z,39.20
2019-04-19T08:39:38.686Z,39.50
2019-04-19T08:43:06.388Z,39.50
2019-04-19T08:44:26.769Z,39.40
2019-04-19T08:46:55.912Z,39.00
2019-04-19T08:49:28.537Z,39.20
2019-04-19T08:51:53.911Z,38.80
2019-04-19T08:54:43.667Z,38.80
2019-04-19T08:56:55.959Z,38.60
2019-04-19T08:59:38.701Z,38.20
2019-04-19T09:02:07.248Z,37.80
2019-04-19T09:04:35.826Z,38.20
2019-04-19T09:09:32.723Z,38.70
2019-04-19T09:11:58.935Z,38.60
2019-04-19T09:14:32.621Z,37.60
2019-04-19T09:16:58.805Z,38.20
2019-04-19T09:19:37.519Z,38.60
2019-04-19T09:21:42.892Z,37.80
2019-04-19T09:24:07.184Z,38.30
2019-04-19T09:26:45.135Z,37.80
2019-04-19T09:29:24.143Z,37.40
2019-04-19T09:31:40.094Z,37.50
2019-04-19T09:34:00.422Z,37.40
2019-04-19T09:41:24.643Z,35.10
2019-04-19T09:43:58.715Z,35.50
2019-04-19T09:46:14.582Z,35.70
2019-04-19T09:48:55.416Z,36.10
2019-04-19T09:51:28.980Z,36.70
2019-04-19T09:54:13.535Z,36.00
2019-04-19T09:56:22.628Z,35.50
2019-04-19T09:58:46.442Z,35.10
2019-04-19T10:01:08.782Z,34.50
2019-04-19T10:03:43.378Z,34.20
2019-04-19T10:06:04.577Z,35.00
2019-04-19T10:08:32.103Z,34.40
2019-04-19T10:10:58.830Z,34.40
2019-04-19T10:13:25.824Z,33.70
2019-04-19T10:15:56.739Z,34.30
2019-04-19T10:18:22.855Z,34.90
2019-04-19T10:21:00.774Z,62.60
2019-04-19T10:28:25.271Z,61.50
2019-04-19T10:33:45.305Z,60.40
2019-04-19T10:36:06.582Z,51.30
2019-04-19T10:38:33.894Z,47.20
2019-04-19T10:41:00.157Z,41.10
2019-04-19T10:43:27.322Z,38.40
2019-04-19T10:45:54.159Z,38.30
2019-04-19T10:48:20.361Z,32.60
2019-04-19T10:51:07.483Z,33.20
2019-04-19T10:53:34.523Z,33.10
2019-04-19T10:56:12.149Z,32.50
2019-04-19T10:58:38.693Z,32.30
2019-04-19T11:01:07.292Z,32.50
2019-04-19T11:03:34.755Z,31.90
2019-04-19T11:06:00.961Z,31.70
2019-04-19T11:08:27.124Z,33.00
2019-04-19T11:10:53.760Z,32.60
2019-04-19T11:13:25.734Z,31.90
2019-04-19T11:15:48.654Z,31.70
2019-04-19T11:18:14.827Z,31.30
2019-04-19T11:20:48.181Z,31.50
2019-04-19T11:23:08.926Z,31.10
2019-04-19T11:25:35.784Z,30.80
2019-04-19T11:28:02.974Z,31.80
2019-04-19T11:30:41.099Z,30.80
2019-04-19T11:33:10.735Z,31.20
2019-04-19T11:35:45.643Z,30.80
2019-04-19T11:38:13.180Z,30.40
2019-04-19T11:40:39.521Z,31.00
2019-04-19T11:43:06.895Z,30.70
2019-04-19T11:45:33.588Z,30.00
2019-04-19T11:48:00.859Z,30.30
2019-04-19T11:50:27.488Z,30.80
2019-04-19T11:53:01.965Z,30.20
2019-04-19T11:55:28.610Z,30.70
2019-04-19T11:57:56.643Z,30.00
2019-04-19T12:00:24.872Z,30.00
2019-04-19T12:02:53.920Z,30.00
2019-04-19T12:05:25.521Z,29.50
2019-04-19T12:07:48.557Z,30.40
2019-04-19T12:10:14.804Z,29.50
2019-04-19T12:12:41.291Z,29.30
2019-04-19T12:15:08.360Z,29.20
2019-04-19T12:17:35.497Z,28.90
2019-04-19T12:20:06.482Z,28.70
2019-04-19T12:22:32.983Z,29.10
2019-04-19T12:24:59.526Z,29.00
2019-04-19T12:27:25.742Z,29.00
2019-04-19T12:29:54.053Z,29.40
2019-04-19T12:32:21.764Z,29.40
2019-04-19T12:34:48.725Z,28.40
2019-04-19T12:37:15.267Z,28.90
2019-04-19T12:47:06.919Z,28.30
2019-04-19T12:51:59.847Z,28.30
2019-04-19T12:54:26.069Z,28.70
2019-04-19T12:56:52.171Z,29.30
2019-04-19T12:59:21.281Z,27.90
2019-04-19T13:01:48.589Z,27.50
2019-04-19T13:04:16.678Z,27.10
2019-04-19T13:06:48.802Z,27.20
2019-04-19T13:09:15.101Z,27.40
2019-04-19T13:11:41.243Z,26.80
2019-04-19T13:14:07.923Z,27.20
2019-04-19T13:16:34.624Z,27.80
2019-04-19T13:23:54.481Z,30.50
2019-04-19T13:26:20.843Z,27.50
2019-04-19T13:28:47.126Z,28.20
2019-04-19T13:31:14.037Z,26.50
2019-04-19T13:33:40.359Z,26.90
2019-04-19T13:36:17.352Z,27.40
2019-04-19T13:38:47.118Z,27.50
2019-04-19T13:41:25.062Z,27.20
2019-04-19T13:43:51.176Z,27.50
2019-04-19T13:46:17.269Z,26.70
2019-04-19T13:48:43.377Z,26.40
2019-04-19T13:51:09.444Z,26.30
2019-04-19T13:53:36.543Z,24.70
2019-04-19T13:56:03.065Z,26.10
2019-04-19T13:58:29.727Z,23.50
2019-04-19T14:00:56.351Z,24.90
2019-04-19T14:03:23.479Z,25.20
2019-04-19T14:05:50.157Z,24.90
2019-04-19T17:44:03.731Z,22.10
2019-04-19T17:46:30.610Z,22.40
2019-04-19T17:48:56.997Z,22.60
2019-04-19T17:51:24.767Z,22.80
2019-04-19T17:53:53.414Z,23.20
2019-04-19T17:56:19.476Z,23.20
2019-04-19T17:58:46.417Z,23.60
2019-04-19T18:01:12.880Z,24.10
2019-04-19T18:03:38.948Z,24.30
2019-04-19T18:06:05.929Z,24.40
2019-04-19T18:08:33.117Z,24.40
2019-04-19T18:11:00.918Z,24.80
2019-04-19T18:13:27.075Z,25.10
2019-04-19T18:15:54.278Z,25.20
2019-04-19T18:18:20.976Z,25.20
2019-04-19T18:20:51.986Z,25.40
2019-04-19T18:23:28.940Z,25.30
2019-04-19T18:25:45.135Z,25.40
2019-04-19T18:28:12.973Z,25.40
2019-04-19T18:30:43.255Z,25.50
2019-04-19T18:33:10.463Z,25.70
2019-04-19T18:53:06.084Z,59.20
2019-04-19T18:55:28.822Z,26.10
2019-04-19T18:57:49.734Z,26.10
2019-04-19T19:05:13.889Z,26.40
2019-04-19T19:07:40.955Z,27.00
2019-04-19T19:10:09.374Z,27.30
2019-04-19T19:12:40.318Z,27.00
2019-04-19T19:15:08.389Z,50.60
2019-04-19T19:17:36.034Z,27.40
2019-04-19T19:20:12.254Z,27.40
2019-04-19T19:22:52.139Z,27.70
2019-04-19T19:25:21.409Z,28.10
2019-04-19T19:27:35.308Z,27.70
2019-04-19T19:30:02.219Z,27.90
2019-04-19T19:32:29.757Z,46.20
2019-04-19T19:35:02.120Z,35.00
2019-04-19T19:37:28.000Z,28.40
2019-04-19T19:39:59.545Z,28.70
2019-04-19T19:42:52.963Z,28.50
2019-04-19T19:45:18.903Z,28.80
2019-04-19T19:48:04.445Z,29.30
2019-04-19T19:50:29.306Z,28.90
2019-04-19T19:52:56.451Z,29.20
2019-04-19T19:55:25.318Z,29.80
2019-04-19T19:57:46.461Z,29.30
2019-04-19T20:00:11.364Z,29.50
2019-04-19T20:02:42.861Z,29.80
2019-04-19T20:04:57.536Z,29.70
2019-04-19T20:07:25.786Z,29.80
2019-04-19T20:09:56.173Z,30.00
2019-04-19T20:12:24.867Z,30.30
2019-04-19T20:14:52.007Z,30.10
2019-04-19T20:17:16.871Z,30.20
2019-04-19T20:19:48.270Z,30.80
2019-04-19T20:22:12.618Z,30.90
2019-04-19T20:24:53.012Z,30.80
2019-04-19T20:27:15.513Z,30.90
2019-04-19T20:29:35.808Z,31.10
2019-04-19T20:32:08.233Z,31.20
2019-04-19T20:34:33.878Z,31.40
2019-04-19T20:36:57.903Z,31.70
2019-04-19T20:39:28.049Z,31.90
2019-04-19T20:41:57.256Z,31.90
2019-04-19T20:44:40.769Z,32.10
2019-04-19T20:46:48.289Z,32.30
2019-04-19T20:49:15.174Z,32.20
2019-04-19T20:51:53.532Z,32.40
2019-04-19T20:54:38.412Z,32.60
2019-04-19T20:57:14.372Z,32.80
2019-04-19T20:59:37.805Z,32.90
2019-04-19T21:01:52.830Z,33.10
2019-04-19T21:04:20.905Z,33.10
2019-04-19T21:06:47.499Z,33.30
2019-04-19T21:09:20.317Z,33.50
2019-04-19T21:11:44.635Z,33.60
2019-04-19T21:14:09.628Z,34.20
2019-04-19T21:16:35.683Z,33.60
2019-04-19T21:19:06.049Z,33.60
2019-04-19T21:21:29.737Z,33.80
2019-04-19T21:24:01.511Z,34.00
2019-04-19T21:26:28.408Z,34.00
2019-04-19T21:28:55.843Z,34.80
2019-04-19T21:31:27.062Z,35.00
2019-04-19T21:33:54.303Z,35.40
2019-04-19T21:36:18.330Z,34.60
2019-04-19T21:38:51.902Z,34.50
2019-04-19T21:41:21.122Z,34.70
2019-04-19T21:43:43.338Z,34.80
2019-04-19T21:46:12.602Z,35.70
2019-04-19T21:48:41.073Z,35.90
2019-04-19T21:51:05.930Z,35.50
2019-04-19T21:53:37.459Z,35.40
2019-04-19T21:56:07.109Z,35.40
2019-04-19T21:58:28.281Z,35.90
2019-04-19T22:01:04.719Z,35.70
2019-04-19T22:03:28.468Z,35.30
2019-04-19T22:05:54.951Z,35.30
2019-04-19T22:08:27.428Z,35.70
2019-04-19T22:10:50.435Z,35.80
2019-04-19T22:13:16.992Z,35.90
2019-04-19T22:15:50.722Z,35.90
2019-04-19T22:18:11.702Z,36.10
2019-04-19T22:20:38.627Z,36.30
2019-04-19T22:23:07.386Z,36.40
2019-04-19T22:25:43.353Z,36.70
2019-04-19T22:28:01.322Z,36.40
2019-04-19T22:30:27.699Z,36.30
2019-04-19T22:32:56.597Z,36.50
2019-04-19T22:35:24.360Z,36.40
2019-04-19T22:37:50.493Z,36.30
2019-04-19T22:40:16.736Z,36.50
2019-04-19T22:42:53.846Z,36.40
2019-04-19T22:45:16.390Z,36.40
2019-04-19T22:47:39.651Z,36.40
2019-04-19T22:50:09.995Z,36.50
2019-04-19T22:52:34.558Z,36.60
2019-04-19T22:55:03.198Z,36.60
2019-04-19T22:57:37.882Z,36.60
2019-04-19T22:59:59.779Z,36.60
2019-04-19T23:02:49.655Z,36.60
2019-04-19T23:05:14.851Z,36.80
2019-04-19T23:07:47.278Z,36.20
2019-04-19T23:10:10.531Z,36.20
2019-04-19T23:12:37.621Z,36.30
2019-04-19T23:15:09.187Z,36.90
2019-04-19T23:17:38.501Z,36.90
2019-04-19T23:20:03.395Z,36.40
2019-04-19T23:22:34.053Z,36.70
2019-04-19T23:25:02.194Z,36.50
2019-04-19T23:27:38.257Z,37.20
2019-04-19T23:29:56.419Z,36.90
2019-04-19T23:32:28.628Z,36.90
2019-04-19T23:34:53.697Z,36.90
2019-04-19T23:37:19.619Z,37.10
2019-04-19T23:39:52.602Z,37.20
2019-04-19T23:42:15.058Z,37.70
2019-04-19T23:44:41.648Z,37.30
2019-04-19T23:47:08.548Z,37.30
2019-04-19T23:49:35.407Z,37.90
2019-04-19T23:52:01.731Z,37.40
2019-04-19T23:54:31.819Z,37.60
2019-04-19T23:57:04.374Z,38.10
2019-04-19T23:59:24.546Z,37.50
